createdAt,value
2018-02-24T00:00:22.292Z,97.70
2018-02-24T00:03:23.511Z,97.20
2018-02-24T00:06:24.760Z,97.60
2018-02-24T00:09:25.961Z,97.90
2018-02-24T00:12:27.163Z,97.70
2018-02-24T00:15:28.350Z,97.30
2018-02-24T00:18:29.621Z,96.90
2018-02-24T00:21:30.893Z,97.40
2018-02-24T00:24:32.116Z,97.40
2018-02-24T00:27:33.310Z,96.90
2018-02-24T00:30:34.525Z,97.50
2018-02-24T00:33:35.718Z,96.90
2018-02-24T00:36:37.685Z,97.00
2018-02-24T00:39:39.617Z,96.70
2018-02-24T00:42:40.834Z,96.30
2018-02-24T00:45:42.044Z,96.40
2018-02-24T00:48:43.292Z,96.90
2018-02-24T00:51:44.500Z,96.90
2018-02-24T00:54:45.717Z,96.20
2018-02-24T00:57:46.960Z,97.40
2018-02-24T01:00:48.266Z,98.00
2018-02-24T01:03:49.484Z,97.90
2018-02-24T01:06:50.689Z,98.10
2018-02-24T01:09:51.901Z,97.90
2018-02-24T01:12:53.128Z,98.40
2018-02-24T01:15:54.496Z,97.80
2018-02-24T01:18:56.597Z,98.30
2018-02-24T01:21:58.529Z,98.00
2018-02-24T01:24:59.720Z,97.80
2018-02-24T01:28:00.956Z,98.30
2018-02-24T01:31:09.084Z,98.10
2018-02-24T01:34:10.286Z,98.00
2018-02-24T01:37:12.241Z,97.90
2018-02-24T01:40:13.440Z,97.60
2018-02-24T01:43:15.389Z,98.00
2018-02-24T01:46:16.597Z,98.00
2018-02-24T01:49:17.793Z,98.00
2018-02-24T01:52:18.993Z,97.20
2018-02-24T01:55:20.968Z,97.50
2018-02-24T01:58:22.168Z,97.20
2018-02-24T02:01:23.433Z,97.90
2018-02-24T02:04:24.627Z,98.40
2018-02-24T02:07:25.857Z,98.10
2018-02-24T02:10:27.062Z,98.20
2018-02-24T02:13:28.539Z,97.80
2018-02-24T02:16:29.982Z,96.90
2018-02-24T02:19:32.096Z,96.80
2018-02-24T02:22:33.529Z,96.70
2018-02-24T02:25:34.961Z,96.90
2018-02-24T02:28:36.193Z,97.60
2018-02-24T02:31:37.391Z,97.30
2018-02-24T02:34:38.593Z,96.90
2018-02-24T02:37:39.801Z,96.70
2018-02-24T02:40:41.725Z,97.20
2018-02-24T02:43:42.948Z,97.20
2018-02-24T02:46:44.154Z,96.30
2018-02-24T02:49:45.400Z,96.80
2018-02-24T02:52:46.620Z,97.00
2018-02-24T02:55:48.580Z,97.10
2018-02-24T02:58:49.823Z,97.00
2018-02-24T03:01:51.843Z,97.10
2018-02-24T03:04:53.800Z,97.20
2018-02-24T03:07:54.999Z,97.20
2018-02-24T03:10:56.209Z,97.00
2018-02-24T03:13:57.425Z,97.80
2018-02-24T03:16:58.636Z,97.90
2018-02-24T03:19:59.852Z,97.80
2018-02-24T03:23:01.069Z,97.30
2018-02-24T03:26:02.290Z,97.30
2018-02-24T03:29:03.513Z,97.90
2018-02-24T03:32:04.740Z,97.90
2018-02-24T03:35:05.941Z,97.60
2018-02-24T03:38:07.885Z,97.20
2018-02-24T03:41:09.116Z,97.20
2018-02-24T03:44:10.380Z,96.70
2018-02-24T03:47:11.569Z,96.80
2018-02-24T03:50:12.808Z,97.00
2018-02-24T03:53:14.025Z,98.10
2018-02-24T03:56:15.247Z,97.90
2018-02-24T03:59:16.470Z,98.50
2018-02-24T04:02:18.457Z,98.70
2018-02-24T04:05:19.718Z,98.60
2018-02-24T04:08:20.924Z,98.50
2018-02-24T04:11:22.201Z,98.80
2018-02-24T04:14:23.420Z,98.10
2018-02-24T04:17:24.642Z,98.20
2018-02-24T04:20:25.836Z,99.10
2018-02-24T04:23:27.116Z,99.10
2018-02-24T04:26:28.300Z,98.60
2018-02-24T04:29:29.525Z,98.70
2018-02-24T04:32:30.732Z,98.70
2018-02-24T04:35:31.921Z,98.30
2018-02-24T04:38:33.133Z,98.50
2018-02-24T04:41:34.326Z,99.10
2018-02-24T04:44:35.544Z,98.60
2018-02-24T04:47:36.767Z,98.90
2018-02-24T04:50:37.958Z,98.80
2018-02-24T04:53:39.169Z,98.60
2018-02-24T04:56:40.396Z,98.10
2018-02-24T04:59:41.625Z,98.00
2018-02-24T05:02:43.618Z,98.60
2018-02-24T05:05:44.945Z,98.50
2018-02-24T05:08:46.168Z,98.70
2018-02-24T05:11:47.383Z,99.20
2018-02-24T05:14:48.624Z,98.20
2018-02-24T05:17:49.800Z,98.80
2018-02-24T05:20:51.020Z,98.30
2018-02-24T05:23:52.237Z,98.50
2018-02-24T05:26:54.217Z,98.70
2018-02-24T05:29:56.163Z,98.50
2018-02-24T05:32:57.394Z,98.50
2018-02-24T05:35:58.587Z,98.60
2018-02-24T05:38:59.790Z,99.20
2018-02-24T05:42:01.736Z,99.00
2018-02-24T05:45:02.976Z,99.10
2018-02-24T05:48:04.173Z,99.50
2018-02-24T05:51:05.383Z,99.50
2018-02-24T05:54:06.628Z,99.90
2018-02-24T05:57:08.576Z,99.90
2018-02-24T06:00:09.830Z,99.90
2018-02-24T06:03:11.100Z,99.60
2018-02-24T06:06:12.340Z,99.70
2018-02-24T06:09:13.528Z,99.50
2018-02-24T06:12:14.768Z,99.70
2018-02-24T06:15:15.975Z,99.00
2018-02-24T06:18:17.916Z,99.00
2018-02-24T06:21:19.135Z,99.00
2018-02-24T06:24:20.351Z,98.70
2018-02-24T06:27:21.633Z,99.10
2018-02-24T06:30:22.841Z,98.70
2018-02-24T06:33:24.124Z,98.90
2018-02-24T06:36:25.402Z,98.10
2018-02-24T06:39:26.652Z,97.60
2018-02-24T06:42:27.881Z,97.80
2018-02-24T06:45:29.120Z,97.30
2018-02-24T06:48:31.058Z,97.00
2018-02-24T06:51:33.011Z,96.60
2018-02-24T06:54:34.377Z,96.60
2018-02-24T06:57:35.599Z,96.70
2018-02-24T07:00:37.580Z,96.70
2018-02-24T07:03:39.575Z,96.10
2018-02-24T07:06:40.781Z,96.00
2018-02-24T07:09:42.020Z,96.10
2018-02-24T07:12:43.213Z,96.70
2018-02-24T07:15:44.456Z,96.40
2018-02-24T07:18:45.676Z,96.60
2018-02-24T07:21:46.924Z,97.00
2018-02-24T07:24:48.152Z,96.60
2018-02-24T07:27:49.362Z,96.60
2018-02-24T07:30:51.313Z,97.00
2018-02-24T07:33:52.541Z,97.00
2018-02-24T07:36:53.822Z,97.50
2018-02-24T07:39:55.056Z,97.30
2018-02-24T07:42:56.249Z,97.00
2018-02-24T07:45:57.462Z,97.00
2018-02-24T07:48:59.412Z,97.20
2018-02-24T07:52:00.618Z,97.20
2018-02-24T07:55:01.845Z,96.70
2018-02-24T07:58:03.090Z,97.50
2018-02-24T08:01:04.304Z,97.10
2018-02-24T08:04:05.565Z,97.10
2018-02-24T08:07:06.838Z,95.70
2018-02-24T08:10:08.047Z,95.30
2018-02-24T08:13:09.273Z,95.00
2018-02-24T08:16:10.498Z,93.60
2018-02-24T08:19:12.497Z,92.30
2018-02-24T08:22:13.712Z,92.20
2018-02-24T08:25:14.922Z,92.00
2018-02-24T08:28:16.144Z,91.70
2018-02-24T08:31:17.388Z,91.60
2018-02-24T08:34:18.609Z,92.70
2018-02-24T08:37:19.891Z,92.70
2018-02-24T08:40:21.112Z,90.40
2018-02-24T08:43:23.061Z,90.80
2018-02-24T08:46:24.293Z,90.80
2018-02-24T08:49:25.496Z,87.60
2018-02-24T08:52:26.760Z,89.80
2018-02-24T08:55:27.981Z,89.70
2018-02-24T08:58:29.199Z,90.70
2018-02-24T09:01:31.153Z,88.00
2018-02-24T09:04:32.399Z,88.20
2018-02-24T09:07:33.606Z,85.00
2018-02-24T09:10:35.566Z,80.80
2018-02-24T09:13:37.272Z,80.50
2018-02-24T09:16:38.641Z,84.50
2018-02-24T09:19:40.119Z,84.30
2018-02-24T09:22:41.490Z,83.80
2018-02-24T09:25:42.906Z,79.90
2018-02-24T09:28:45.253Z,75.40
2018-02-24T09:31:46.864Z,75.30
2018-02-24T09:34:56.134Z,77.60
2018-02-24T09:37:57.417Z,78.20
2018-02-24T09:40:58.651Z,76.20
2018-02-24T09:43:59.844Z,75.90
2018-02-24T09:47:01.053Z,75.80
2018-02-24T09:50:02.314Z,75.90
2018-02-24T09:53:03.650Z,74.80
2018-02-24T09:56:04.847Z,77.50
2018-02-24T09:59:06.073Z,74.20
2018-02-24T10:02:07.284Z,75.20
2018-02-24T10:05:08.534Z,73.30
2018-02-24T10:08:09.761Z,74.60
2018-02-24T10:11:11.005Z,73.90
2018-02-24T10:14:12.198Z,82.30
2018-02-24T10:17:13.456Z,84.90
2018-02-24T10:20:14.659Z,77.10
2018-02-24T10:23:15.908Z,79.10
2018-02-24T10:26:17.105Z,76.80
2018-02-24T10:29:19.067Z,83.60
2018-02-24T10:32:20.284Z,83.50
2018-02-24T10:35:21.505Z,80.00
2018-02-24T10:38:23.457Z,79.30
2018-02-24T10:41:24.830Z,79.20
2018-02-24T10:44:26.048Z,79.80
2018-02-24T10:47:27.264Z,78.70
2018-02-24T10:50:28.454Z,80.00
2018-02-24T10:53:29.888Z,80.80
2018-02-24T10:56:31.104Z,79.70
2018-02-24T10:59:32.305Z,80.90
2018-02-24T11:02:33.529Z,79.80
2018-02-24T11:05:34.855Z,81.40
2018-02-24T11:08:36.824Z,77.30
2018-02-24T11:11:38.077Z,77.20
2018-02-24T11:14:39.316Z,77.40
2018-02-24T11:17:40.591Z,82.20
2018-02-24T11:20:41.797Z,78.30
2018-02-24T11:23:43.780Z,79.40
2018-02-24T11:26:45.780Z,78.30
2018-02-24T11:29:47.025Z,78.40
2018-02-24T11:32:49.122Z,75.70
2018-02-24T11:35:50.347Z,76.40
2018-02-24T11:38:52.075Z,76.40
2018-02-24T11:41:53.328Z,77.70
2018-02-24T11:44:54.934Z,78.30
2018-02-24T11:47:56.815Z,88.30
2018-02-24T11:50:58.053Z,87.90
2018-02-24T11:53:59.316Z,80.80
2018-02-24T11:57:00.522Z,82.50
2018-02-24T12:00:01.761Z,81.90
2018-02-24T12:03:03.000Z,82.80
2018-02-24T12:06:04.237Z,81.10
2018-02-24T12:09:05.447Z,82.30
2018-02-24T12:12:06.710Z,84.60
2018-02-24T12:15:07.927Z,85.50
2018-02-24T12:18:09.185Z,83.00
2018-02-24T12:21:10.398Z,82.80
2018-02-24T12:24:11.645Z,83.70
2018-02-24T12:27:12.859Z,85.30
2018-02-24T12:30:14.094Z,85.00
2018-02-24T12:33:15.332Z,84.30
2018-02-24T12:36:16.584Z,83.40
2018-02-24T12:39:18.557Z,82.70
2018-02-24T12:42:20.555Z,83.10
2018-02-24T12:45:21.860Z,82.90
2018-02-24T12:48:23.093Z,83.20
2018-02-24T12:51:24.340Z,82.00
2018-02-24T12:54:26.327Z,80.20
2018-02-24T12:57:27.560Z,80.10
2018-02-24T13:00:28.797Z,80.60
2018-02-24T13:03:30.007Z,79.50
2018-02-24T13:06:31.980Z,81.40
2018-02-24T13:09:33.949Z,81.90
2018-02-24T13:12:35.184Z,81.90
2018-02-24T13:15:36.381Z,80.30
2018-02-24T13:18:38.349Z,78.60
2018-02-24T13:21:39.556Z,78.70
2018-02-24T13:24:40.789Z,79.40
2018-02-24T13:27:42.746Z,80.20
2018-02-24T13:30:43.995Z,80.20
2018-02-24T13:33:45.237Z,79.80
2018-02-24T13:36:46.502Z,79.80
2018-02-24T13:39:47.718Z,79.40
2018-02-24T13:42:49.681Z,78.70
2018-02-24T13:45:50.876Z,78.70
2018-02-24T13:48:52.106Z,81.50
2018-02-24T13:51:53.308Z,82.00
2018-02-24T13:54:54.556Z,80.50
2018-02-24T13:57:55.794Z,80.60
2018-02-24T14:00:57.009Z,79.80
2018-02-24T14:03:58.253Z,82.00
2018-02-24T14:06:59.500Z,80.10
2018-02-24T14:10:01.478Z,77.60
2018-02-24T14:13:03.520Z,78.20
2018-02-24T14:16:04.674Z,78.20
2018-02-24T14:19:05.931Z,76.70
2018-02-24T14:22:07.181Z,77.10
2018-02-24T14:25:08.420Z,78.40
2018-02-24T14:28:09.641Z,77.20
2018-02-24T14:31:10.880Z,75.90
2018-02-24T14:34:12.086Z,76.80
2018-02-24T14:37:14.055Z,81.20
2018-02-24T14:40:15.292Z,81.00
2018-02-24T14:43:16.545Z,82.50
2018-02-24T14:46:17.752Z,83.50
2018-02-24T14:49:18.977Z,84.50
2018-02-24T14:52:20.212Z,84.00
2018-02-24T14:55:21.445Z,85.40
2018-02-24T14:58:23.398Z,86.50
2018-02-24T15:01:24.636Z,86.40
2018-02-24T15:04:25.893Z,87.50
2018-02-24T15:07:27.164Z,88.10
2018-02-24T15:10:28.388Z,89.30
2018-02-24T15:13:30.336Z,90.70
2018-02-24T15:16:31.576Z,90.70
2018-02-24T15:19:32.840Z,90.00
2018-02-24T15:22:34.069Z,90.50
2018-02-24T15:25:35.324Z,91.30
2018-02-24T15:28:36.569Z,90.90
2018-02-24T15:31:38.556Z,91.10
2018-02-24T15:34:40.548Z,91.60
2018-02-24T15:37:41.777Z,91.30
2018-02-24T15:40:42.993Z,91.60
2018-02-24T15:43:44.321Z,90.90
2018-02-24T15:46:46.289Z,90.40
2018-02-24T15:49:47.549Z,90.40
2018-02-24T15:52:48.792Z,90.00
2018-02-24T15:55:50.040Z,90.10
2018-02-24T15:58:51.268Z,88.70
2018-02-24T16:01:52.477Z,89.00
2018-02-24T16:04:53.680Z,89.50
2018-02-24T16:07:55.641Z,86.90
2018-02-24T16:10:56.873Z,86.90
2018-02-24T16:13:58.161Z,72.60
2018-02-24T16:16:59.449Z,69.50
2018-02-24T16:20:01.453Z,81.50
2018-02-24T16:23:02.678Z,81.50
2018-02-24T16:26:03.895Z,82.10
2018-02-24T16:29:05.120Z,82.80
2018-02-24T16:32:07.336Z,85.10
2018-02-24T16:35:08.580Z,85.00
2018-02-24T16:38:09.936Z,84.50
2018-02-24T16:41:11.886Z,84.20
2018-02-24T16:44:14.681Z,84.10
2018-02-24T16:47:16.848Z,83.60
2018-02-24T16:50:18.316Z,83.60
2018-02-24T16:53:19.819Z,83.60
2018-02-24T16:56:21.470Z,81.50
2018-02-24T16:59:24.946Z,83.40
2018-02-24T17:02:26.168Z,83.40
2018-02-24T17:05:28.270Z,92.20
2018-02-24T17:08:30.205Z,92.00
2018-02-24T17:11:32.267Z,89.20
2018-02-24T17:14:34.133Z,86.50
2018-02-24T17:17:36.726Z,87.90
2018-02-24T17:20:38.011Z,88.40
2018-02-24T17:23:40.216Z,87.00
2018-02-24T17:26:41.886Z,86.40
2018-02-24T17:29:44.344Z,88.70
2018-02-24T17:32:46.122Z,88.50
2018-02-24T17:35:47.365Z,87.60
2018-02-24T17:38:48.718Z,87.70
2018-02-24T17:41:50.950Z,84.00
2018-02-24T17:44:52.384Z,84.10
2018-02-24T17:47:53.641Z,81.20
2018-02-24T17:50:54.876Z,80.80
2018-02-24T17:53:56.640Z,79.40
2018-02-24T17:56:58.345Z,78.70
2018-02-24T18:00:00.341Z,75.50
2018-02-24T18:03:01.753Z,75.50
2018-02-24T18:06:03.540Z,76.70
2018-02-24T18:09:05.506Z,75.20
2018-02-24T18:12:08.331Z,77.60
2018-02-24T18:15:10.109Z,74.30
2018-02-24T18:18:11.881Z,75.50
2018-02-24T18:21:13.546Z,74.30
2018-02-24T18:24:15.267Z,74.40
2018-02-24T18:27:17.270Z,73.60
2018-02-24T18:30:19.029Z,74.70
2018-02-24T18:33:20.308Z,74.10
2018-02-24T18:36:21.617Z,75.10
2018-02-24T18:39:23.575Z,73.90
2018-02-24T18:42:24.801Z,73.90
2018-02-24T18:45:26.554Z,73.30
2018-02-24T18:48:27.844Z,74.70
2018-02-24T18:51:29.079Z,74.80
2018-02-24T18:58:35.628Z,74.30
2018-02-24T19:01:38.207Z,73.50
2018-02-24T19:04:39.559Z,74.20
2018-02-24T19:07:43.276Z,72.30
2018-02-24T19:10:44.540Z,72.30
2018-02-24T19:13:47.020Z,72.10
2018-02-24T19:16:48.280Z,72.20
2018-02-24T19:19:49.996Z,71.70
2018-02-24T19:22:51.256Z,71.80
2018-02-24T19:25:52.788Z,71.30
2018-02-24T19:28:54.006Z,71.80
2018-02-24T19:31:55.292Z,72.60
2018-02-24T19:34:56.717Z,72.70
2018-02-24T19:37:57.936Z,73.60
2018-02-24T19:40:59.561Z,73.40
2018-02-24T19:44:01.595Z,75.50
2018-02-24T19:47:03.435Z,75.50
2018-02-24T19:50:05.308Z,76.50
2018-02-24T19:53:06.561Z,75.00
2018-02-24T19:56:09.424Z,74.00
2018-02-24T19:59:10.983Z,74.70
2018-02-24T20:02:13.306Z,73.70
2018-02-24T20:05:15.705Z,73.60
2018-02-24T20:08:16.937Z,74.20
2018-02-24T20:11:19.874Z,73.40
2018-02-24T20:14:22.135Z,73.40
2018-02-24T20:17:23.498Z,73.50
2018-02-24T20:20:24.765Z,71.40
2018-02-24T20:23:27.185Z,71.70
2018-02-24T20:26:29.996Z,71.70
2018-02-24T20:29:31.288Z,71.50
2018-02-24T20:32:32.993Z,72.00
2018-02-24T20:35:35.293Z,71.90
2018-02-24T20:38:36.557Z,72.70
2018-02-24T20:41:37.789Z,73.20
2018-02-24T20:44:39.381Z,73.50
2018-02-24T20:47:41.897Z,72.00
2018-02-24T20:50:43.144Z,72.00
2018-02-24T20:53:44.947Z,71.50
2018-02-24T20:56:46.207Z,70.50
2018-02-24T20:59:47.877Z,71.60
2018-02-24T21:02:49.181Z,70.70
2018-02-24T21:05:51.328Z,83.10
2018-02-24T21:08:53.260Z,82.90
2018-02-24T21:11:55.788Z,76.20
2018-02-24T21:14:57.486Z,75.70
2018-02-24T21:17:58.731Z,74.70
2018-02-24T21:21:00.200Z,74.30
2018-02-24T21:24:01.447Z,72.70
2018-02-24T21:27:02.667Z,73.10
2018-02-24T21:30:04.738Z,73.10
2018-02-24T21:33:07.274Z,72.40
2018-02-24T21:36:08.665Z,72.30
2018-02-24T21:39:10.394Z,73.50
2018-02-24T21:42:11.907Z,74.70
2018-02-24T21:45:13.897Z,74.00
2018-02-24T21:48:15.375Z,73.90
2018-02-24T21:51:16.602Z,70.90
2018-02-24T21:54:17.836Z,73.50
2018-02-24T21:57:19.073Z,72.10
2018-02-24T22:00:20.301Z,71.70
2018-02-24T22:03:21.545Z,72.70
2018-02-24T22:06:23.494Z,72.10
2018-02-24T22:09:24.734Z,72.10
2018-02-24T22:12:25.969Z,70.10
2018-02-24T22:15:27.183Z,70.50
2018-02-24T22:18:28.428Z,70.60
2018-02-24T22:21:30.480Z,69.50
2018-02-24T22:24:31.752Z,70.00
2018-02-24T22:27:32.992Z,69.90
2018-02-24T22:30:34.294Z,71.10
2018-02-24T22:33:35.599Z,70.20
2018-02-24T22:36:36.872Z,73.30
2018-02-24T22:39:38.827Z,71.70
2018-02-24T22:42:40.184Z,71.70
2018-02-24T22:45:41.498Z,72.10
2018-02-24T22:48:49.190Z,71.50
2018-02-24T22:51:50.683Z,71.40
2018-02-24T22:54:53.095Z,72.10
2018-02-24T22:57:54.489Z,72.30
2018-02-24T23:00:56.521Z,71.30
2018-02-24T23:03:57.892Z,69.80
2018-02-24T23:06:59.154Z,72.20
2018-02-24T23:10:00.481Z,71.30
2018-02-24T23:13:02.479Z,72.30
2018-02-24T23:16:03.835Z,72.10
2018-02-24T23:19:06.008Z,74.70
2018-02-24T23:22:07.979Z,74.10
2018-02-24T23:25:09.298Z,74.10
2018-02-24T23:28:10.663Z,74.10
2018-02-24T23:31:12.051Z,73.60
2018-02-24T23:34:14.024Z,74.80
2018-02-24T23:37:15.289Z,75.00
2018-02-24T23:40:16.687Z,75.10
2018-02-24T23:43:18.767Z,75.60
2018-02-24T23:46:19.975Z,75.60
2018-02-24T23:49:21.185Z,76.00
2018-02-24T23:52:22.377Z,76.50
2018-02-24T23:55:24.405Z,76.80
2018-02-24T23:58:25.601Z,76.80
